createdAt,value
2022-09-09T00:00:36.999Z,93.60
2022-09-09T00:05:02.379Z,93.70
2022-09-09T00:09:18.962Z,93.80
2022-09-09T00:13:39.516Z,93.90
2022-09-09T00:17:58.387Z,94.10
2022-09-09T00:22:18.279Z,94.30
2022-09-09T00:26:37.835Z,94.40
2022-09-09T00:30:53.255Z,94.30
2022-09-09T00:35:19.205Z,94.40
2022-09-09T00:39:39.464Z,94.80
2022-09-09T00:44:02.682Z,94.40
2022-09-09T00:48:18.006Z,94.50
2022-09-09T00:52:42.076Z,94.40
2022-09-09T00:57:07.019Z,94.50
2022-09-09T01:01:20.754Z,94.30
2022-09-09T01:05:44.086Z,94.00
2022-09-09T01:09:59.626Z,93.50
2022-09-09T01:14:24.906Z,93.00
2022-09-09T01:18:42.590Z,92.50
2022-09-09T01:23:12.543Z,92.30
2022-09-09T01:27:31.692Z,92.20
2022-09-09T01:31:55.963Z,92.10
2022-09-09T01:36:14.761Z,92.20
2022-09-09T01:40:36.838Z,92.30
2022-09-09T01:44:52.372Z,92.60
2022-09-09T01:49:09.510Z,92.70
2022-09-09T01:53:24.614Z,92.80
2022-09-09T01:57:45.211Z,92.80
2022-09-09T02:02:10.620Z,92.70
2022-09-09T02:06:32.865Z,92.70
2022-09-09T02:11:01.595Z,92.80
2022-09-09T02:15:32.374Z,92.80
2022-09-09T02:19:54.913Z,92.70
2022-09-09T02:24:18.132Z,92.70
2022-09-09T02:28:40.216Z,92.70
2022-09-09T02:32:58.784Z,92.60
2022-09-09T02:37:32.080Z,92.50
2022-09-09T02:41:46.013Z,92.20
2022-09-09T02:46:11.247Z,92.30
2022-09-09T02:50:32.002Z,92.20
2022-09-09T02:54:54.680Z,92.30
2022-09-09T02:59:08.656Z,92.30
2022-09-09T03:03:24.660Z,92.30
2022-09-09T03:07:40.866Z,92.10
2022-09-09T03:11:57.254Z,92.20
2022-09-09T03:16:11.366Z,92.20
2022-09-09T03:20:32.330Z,92.30
2022-09-09T03:24:47.698Z,92.30
2022-09-09T03:29:04.104Z,92.30
2022-09-09T03:33:18.803Z,92.10
2022-09-09T03:37:33.743Z,92.00
2022-09-09T03:41:49.302Z,92.00
2022-09-09T03:46:04.719Z,92.20
2022-09-09T03:50:19.466Z,92.50
2022-09-09T03:54:35.112Z,92.30
2022-09-09T03:58:48.787Z,92.30
2022-09-09T04:03:03.903Z,92.30
2022-09-09T04:07:17.570Z,92.40
2022-09-09T04:11:31.927Z,92.30
2022-09-09T04:15:53.280Z,92.30
2022-09-09T04:20:12.330Z,92.20
2022-09-09T04:24:30.087Z,92.40
2022-09-09T04:28:45.239Z,92.50
2022-09-09T04:33:03.919Z,92.60
2022-09-09T04:37:19.186Z,92.60
2022-09-09T04:41:33.501Z,92.80
2022-09-09T04:45:50.537Z,92.90
2022-09-09T04:50:07.470Z,93.10
2022-09-09T04:54:23.336Z,93.40
2022-09-09T04:58:38.525Z,93.50
2022-09-09T05:02:53.781Z,91.80
2022-09-09T05:07:07.614Z,90.70
2022-09-09T05:11:25.232Z,90.30
2022-09-09T05:15:41.204Z,90.80
2022-09-09T05:19:54.958Z,90.80
2022-09-09T05:24:08.776Z,90.60
2022-09-09T05:28:24.121Z,90.40
2022-09-09T05:32:37.900Z,90.20
2022-09-09T05:36:52.658Z,89.00
2022-09-09T05:41:10.626Z,87.20
2022-09-09T05:45:26.458Z,85.80
2022-09-09T05:49:40.271Z,85.70
2022-09-09T05:53:56.169Z,86.20
2022-09-09T05:58:12.115Z,85.30
2022-09-09T06:02:27.446Z,85.00
2022-09-09T06:06:42.921Z,85.00
2022-09-09T06:11:05.061Z,86.30
2022-09-09T06:15:18.728Z,86.00
2022-09-09T06:19:34.089Z,86.60
2022-09-09T06:23:49.711Z,86.90
2022-09-09T06:28:04.355Z,85.20
2022-09-09T06:32:18.543Z,84.10
2022-09-09T06:36:37.781Z,83.20
2022-09-09T06:40:55.396Z,82.60
2022-09-09T06:45:11.208Z,83.80
2022-09-09T06:49:32.881Z,84.10
2022-09-09T06:53:52.183Z,85.80
2022-09-09T06:58:10.304Z,84.70
2022-09-09T07:02:24.803Z,81.60
2022-09-09T07:06:41.324Z,82.10
2022-09-09T07:11:08.066Z,81.60
2022-09-09T07:15:25.882Z,81.80
2022-09-09T07:19:40.829Z,79.00
2022-09-09T07:23:55.483Z,73.40
2022-09-09T07:28:11.561Z,73.10
2022-09-09T07:32:26.546Z,70.30
2022-09-09T07:36:43.143Z,67.70
2022-09-09T07:41:06.650Z,64.60
2022-09-09T07:45:21.943Z,59.60
2022-09-09T07:49:36.453Z,56.60
2022-09-09T07:53:56.025Z,54.10
2022-09-09T07:58:10.018Z,52.60
2022-09-09T08:02:30.348Z,51.90
2022-09-09T08:06:47.529Z,49.00
2022-09-09T08:11:08.442Z,50.50
2022-09-09T08:15:22.350Z,51.60
2022-09-09T08:19:37.690Z,53.00
2022-09-09T08:23:58.388Z,50.50
2022-09-09T08:28:12.567Z,48.30
2022-09-09T08:32:27.307Z,45.70
2022-09-09T08:36:45.539Z,42.30
2022-09-09T08:41:26.654Z,42.50
2022-09-09T08:45:52.604Z,45.90
2022-09-09T08:50:25.654Z,45.70
2022-09-09T08:54:52.065Z,45.10
2022-09-09T08:59:08.014Z,43.00
2022-09-09T09:03:37.724Z,42.40
2022-09-09T09:08:07.376Z,39.50
2022-09-09T09:12:25.617Z,38.50
2022-09-09T09:16:48.912Z,38.90
2022-09-09T09:21:11.727Z,38.10
2022-09-09T09:25:33.704Z,36.40
2022-09-09T09:30:21.108Z,35.70
2022-09-09T09:34:27.520Z,36.30
2022-09-09T09:43:31.657Z,35.60
2022-09-09T09:48:03.042Z,34.70
2022-09-09T09:52:24.876Z,33.60
2022-09-09T09:56:39.275Z,34.20
2022-09-09T10:00:55.346Z,35.40
2022-09-09T10:05:23.182Z,37.30
2022-09-09T10:09:42.084Z,39.10
2022-09-09T10:14:07.135Z,40.80
2022-09-09T10:18:42.009Z,42.10
2022-09-09T10:23:12.719Z,40.90
2022-09-09T10:27:35.172Z,41.00
2022-09-09T10:32:02.286Z,38.00
2022-09-09T10:36:21.299Z,37.10
2022-09-09T10:40:43.229Z,37.10
2022-09-09T10:45:11.622Z,35.90
2022-09-09T10:49:44.058Z,36.50
2022-09-09T10:54:14.423Z,36.30
2022-09-09T10:58:37.044Z,34.30
2022-09-09T11:02:55.229Z,35.20
2022-09-09T11:07:14.410Z,35.50
2022-09-09T11:11:32.007Z,36.50
2022-09-09T11:15:52.200Z,38.20
2022-09-09T11:20:08.978Z,39.50
2022-09-09T11:24:27.190Z,39.90
2022-09-09T11:29:04.082Z,39.40
2022-09-09T11:33:59.931Z,38.10
2022-09-09T11:38:27.137Z,36.30
2022-09-09T11:42:41.130Z,36.30
2022-09-09T11:46:54.804Z,37.10
2022-09-09T11:51:16.937Z,37.20
2022-09-09T11:55:34.037Z,38.10
2022-09-09T11:59:54.197Z,39.40
2022-09-09T12:04:22.173Z,38.70
2022-09-09T12:08:38.750Z,38.40
2022-09-09T12:12:52.401Z,38.80
2022-09-09T12:17:21.519Z,39.90
2022-09-09T12:21:40.970Z,40.90
2022-09-09T12:26:11.075Z,41.60
2022-09-09T12:30:27.760Z,41.90
2022-09-09T12:34:43.758Z,42.40
2022-09-09T12:39:00.850Z,42.80
2022-09-09T12:43:24.487Z,43.60
2022-09-09T12:47:44.178Z,44.30
2022-09-09T12:51:59.610Z,44.90
2022-09-09T12:56:22.630Z,45.20
2022-09-09T13:00:37.642Z,44.40
2022-09-09T13:04:52.610Z,44.60
2022-09-09T13:09:06.670Z,44.40
2022-09-09T13:13:23.776Z,43.60
2022-09-09T13:17:39.824Z,43.10
2022-09-09T13:21:54.166Z,43.50
2022-09-09T13:26:22.794Z,44.00
2022-09-09T13:30:41.238Z,44.00
2022-09-09T13:34:57.835Z,43.60
2022-09-09T13:39:18.662Z,43.50
2022-09-09T13:43:34.810Z,44.00
2022-09-09T13:47:53.192Z,44.70
2022-09-09T13:52:13.049Z,45.20
2022-09-09T13:56:26.806Z,45.50
2022-09-09T14:00:40.789Z,45.70
2022-09-09T14:04:56.404Z,45.90
2022-09-09T14:09:14.526Z,46.30
2022-09-09T14:13:28.197Z,47.00
2022-09-09T14:17:41.961Z,49.50
2022-09-09T14:21:55.654Z,52.00
2022-09-09T14:26:10.905Z,66.20
2022-09-09T14:30:25.039Z,70.90
2022-09-09T14:34:39.278Z,77.20
2022-09-09T14:38:53.475Z,85.70
2022-09-09T14:43:08.620Z,91.50
2022-09-09T14:47:23.059Z,93.30
2022-09-09T14:51:36.665Z,94.10
2022-09-09T14:55:50.433Z,94.00
2022-09-09T15:00:07.439Z,93.60
2022-09-09T15:04:21.338Z,93.10
2022-09-09T15:08:39.077Z,92.60
2022-09-09T15:12:55.507Z,91.10
2022-09-09T15:17:10.860Z,89.60
2022-09-09T15:21:27.154Z,86.70
2022-09-09T15:25:40.821Z,84.10
2022-09-09T15:30:01.391Z,82.20
2022-09-09T15:34:16.729Z,80.20
2022-09-09T15:38:33.223Z,81.60
2022-09-09T15:42:47.811Z,82.30
2022-09-09T15:47:01.569Z,79.70
2022-09-09T15:51:38.148Z,78.90
2022-09-09T15:55:57.670Z,79.60
2022-09-09T16:00:14.183Z,79.50
2022-09-09T16:04:29.962Z,80.30
2022-09-09T16:08:49.200Z,79.90
2022-09-09T16:13:03.631Z,80.60
2022-09-09T16:17:17.282Z,81.10
2022-09-09T16:21:32.623Z,81.20
2022-09-09T16:25:55.731Z,81.50
2022-09-09T16:30:10.693Z,81.80
2022-09-09T16:34:24.579Z,80.00
2022-09-09T16:38:39.140Z,80.60
2022-09-09T16:42:54.242Z,79.20
2022-09-09T16:47:07.951Z,77.50
2022-09-09T16:51:24.285Z,76.40
2022-09-09T16:55:43.527Z,73.90
2022-09-09T17:00:01.209Z,74.90
2022-09-09T17:04:25.271Z,73.40
2022-09-09T17:08:39.921Z,71.60
2022-09-09T17:12:53.985Z,70.70
2022-09-09T17:17:30.776Z,70.50
2022-09-09T17:22:00.428Z,67.90
2022-09-09T17:26:19.136Z,66.40
2022-09-09T17:30:35.907Z,65.80
2022-09-09T17:34:51.200Z,65.90
2022-09-09T17:39:06.668Z,64.90
2022-09-09T17:43:20.752Z,65.40
2022-09-09T17:47:34.490Z,66.40
2022-09-09T17:51:49.494Z,67.60
2022-09-09T17:56:07.810Z,68.90
2022-09-09T18:00:21.630Z,69.10
2022-09-09T18:04:37.270Z,69.00
2022-09-09T18:33:56.952Z,73.30
2022-09-09T18:38:10.681Z,73.20
2022-09-09T18:42:24.389Z,73.70
2022-09-09T18:46:39.932Z,74.70
2022-09-09T18:50:55.102Z,75.30
2022-09-09T18:55:09.971Z,75.40
2022-09-09T18:59:25.602Z,75.80
2022-09-09T19:03:39.590Z,76.60
2022-09-09T19:07:54.628Z,76.50
2022-09-09T19:12:08.752Z,76.90
2022-09-09T19:16:23.755Z,76.80
2022-09-09T19:20:37.752Z,77.20
2022-09-09T19:24:52.965Z,77.70
2022-09-09T19:29:06.825Z,78.00
2022-09-09T19:33:20.495Z,78.30
2022-09-09T19:37:34.714Z,78.20
2022-09-09T19:41:50.399Z,78.60
2022-09-09T19:46:06.681Z,78.70
2022-09-09T19:50:20.444Z,79.30
2022-09-09T19:54:34.212Z,78.90
2022-09-09T19:58:50.062Z,79.20
2022-09-09T20:03:18.602Z,78.70
2022-09-09T20:07:33.483Z,79.00
2022-09-09T20:11:48.818Z,78.90
2022-09-09T20:16:06.317Z,79.00
2022-09-09T20:20:20.696Z,79.70
2022-09-09T20:24:34.428Z,78.80
2022-09-09T20:28:50.297Z,78.70
2022-09-09T20:33:06.039Z,79.80
2022-09-09T20:37:20.860Z,80.60
2022-09-09T20:41:37.226Z,80.90
2022-09-09T20:45:53.822Z,80.40
2022-09-09T20:50:10.551Z,80.20
2022-09-09T20:54:26.137Z,79.40
2022-09-09T20:58:40.408Z,79.40
2022-09-09T21:02:54.347Z,79.60
2022-09-09T21:07:09.611Z,79.10
2022-09-09T21:11:24.209Z,79.10
2022-09-09T21:15:38.201Z,79.40
2022-09-09T21:19:55.300Z,79.00
2022-09-09T21:24:12.653Z,79.40
2022-09-09T21:28:26.997Z,78.60
2022-09-09T21:32:40.722Z,78.50
2022-09-09T21:36:54.363Z,78.50
2022-09-09T21:41:12.971Z,79.50
2022-09-09T21:45:28.016Z,79.00
2022-09-09T21:49:41.823Z,79.20
2022-09-09T21:53:57.527Z,80.30
2022-09-09T21:58:13.174Z,80.10
2022-09-09T22:02:28.133Z,80.30
2022-09-09T22:06:41.914Z,80.20
2022-09-09T22:10:55.548Z,79.90
2022-09-09T22:15:11.288Z,79.60
2022-09-09T22:19:25.661Z,79.40
2022-09-09T22:23:39.343Z,79.60
2022-09-09T22:27:53.028Z,79.80
2022-09-09T22:32:08.221Z,80.40
2022-09-09T22:36:22.178Z,80.60
2022-09-09T22:40:37.843Z,81.10
2022-09-09T22:44:51.592Z,81.70
2022-09-09T22:49:06.884Z,82.00
2022-09-09T22:53:20.933Z,82.00
2022-09-09T22:57:34.564Z,81.90
2022-09-09T23:01:48.565Z,81.70
2022-09-09T23:06:04.671Z,82.10
2022-09-09T23:10:18.441Z,82.50
2022-09-09T23:14:33.757Z,83.10
2022-09-09T23:18:48.058Z,83.20
2022-09-09T23:23:03.074Z,83.40
2022-09-09T23:27:16.848Z,83.90
2022-09-09T23:31:34.051Z,83.70
2022-09-09T23:35:48.053Z,83.70
2022-09-09T23:40:03.876Z,84.10
2022-09-09T23:44:17.955Z,84.10
2022-09-09T23:48:31.953Z,84.10
2022-09-09T23:52:46.388Z,84.40
2022-09-09T23:57:02.362Z,84.10
